Time;durP1;ratioP1;P1;durP2;ratioP2;P2;SDS_P1;SDS_P2;PMS_P1;PMS_P2;Temp;Humidity;BMP_temperature;BMP_pressure;BME280_temperature;BME280_humidity;BME280_pressure;Samples;Min_cycle;Max_cycle;Signal;HPM_P1;HPM_P2
2024/01/20 00:00:18;;;;;;;52.43;27.43;;;;;;;;;;5033612;28;20257;-75
2024/01/20 00:02:43;;;;;;;46.33;25.57;;;;;;;;;;5028537;28;20235;-76
2024/01/20 00:05:09;;;;;;;49.80;26.87;;;;;;;;;;5031783;28;20205;-76
2024/01/20 00:07:35;;;;;;;52.83;28.60;;;;;;;;;;5031971;28;20181;-77
2024/01/20 00:10:00;;;;;;;52.40;28.60;;;;;;;;;;5027689;28;20178;-76
2024/01/20 00:12:26;;;;;;;51.73;27.57;;;;;;;;;;5040234;28;20505;-75
2024/01/20 00:14:51;;;;;;;52.03;27.30;;;;;;;;;;5040107;28;20484;-75
2024/01/20 00:17:16;;;;;;;57.70;28.47;;;;;;;;;;5037939;28;20268;-76
2024/01/20 00:19:42;;;;;;;51.00;26.83;;;;;;;;;;5046392;28;20552;-75
2024/01/20 00:22:08;;;;;;;50.33;26.13;;;;;;;;;;5043148;28;20197;-75
2024/01/20 00:24:34;;;;;;;59.07;29.10;;;;;;;;;;5028401;28;20535;-76
2024/01/20 00:26:59;;;;;;;59.57;29.20;;;;;;;;;;5038155;28;20296;-76
2024/01/20 00:29:25;;;;;;;53.57;27.73;;;;;;;;;;5037486;28;20210;-76
2024/01/20 00:31:50;;;;;;;49.20;26.17;;;;;;;;;;5032996;28;20181;-76
2024/01/20 00:34:15;;;;;;;55.37;28.30;;;;;;;;;;5036999;28;20189;-76
2024/01/20 00:36:41;;;;;;;59.23;28.63;;;;;;;;;;5038804;28;20664;-76
2024/01/20 00:39:06;;;;;;;58.93;28.50;;;;;;;;;;5030635;28;20666;-76
2024/01/20 00:41:32;;;;;;;56.43;28.37;;;;;;;;;;5038901;28;20197;-76
2024/01/20 00:43:58;;;;;;;64.80;28.50;;;;;;;;;;5039095;28;20217;-76
2024/01/20 00:46:24;;;;;;;65.93;29.70;;;;;;;;;;5038004;28;20178;-77
2024/01/20 00:48:49;;;;;;;60.90;28.47;;;;;;;;;;5036800;28;20679;-76
2024/01/20 00:51:15;;;;;;;63.57;29.20;;;;;;;;;;5035674;28;20190;-75
2024/01/20 00:53:40;;;;;;;63.60;29.63;;;;;;;;;;5037915;28;20278;-77
2024/01/20 00:56:06;;;;;;;73.43;30.20;;;;;;;;;;5037368;28;20190;-76
2024/01/20 00:58:31;;;;;;;67.07;28.70;;;;;;;;;;5032145;28;20178;-77
2024/01/20 01:00:57;;;;;;;58.37;27.77;;;;;;;;;;5026300;28;20255;-76
2024/01/20 01:03:22;;;;;;;60.60;26.10;;;;;;;;;;5033614;28;20300;-76
2024/01/20 01:05:48;;;;;;;66.97;27.33;;;;;;;;;;5038347;28;20193;-76
2024/01/20 01:08:13;;;;;;;64.80;29.53;;;;;;;;;;5027889;28;20265;-77
2024/01/20 01:10:39;;;;;;;63.57;28.90;;;;;;;;;;5011670;28;20729;-77
2024/01/20 01:13:04;;;;;;;65.87;28.37;;;;;;;;;;5015492;28;20236;-75
2024/01/20 01:15:32;;;;;;;61.33;26.50;;;;;;;;;;5030551;28;20673;-77
2024/01/20 01:17:57;;;;;;;57.33;26.03;;;;;;;;;;5041482;28;20189;-77
2024/01/20 01:20:23;;;;;;;63.33;27.50;;;;;;;;;;5045302;28;20612;-78
2024/01/20 01:22:51;;;;;;;65.43;28.13;;;;;;;;;;5035540;28;20217;-77
2024/01/20 01:25:16;;;;;;;69.67;27.77;;;;;;;;;;5038029;28;20260;-77
2024/01/20 01:27:42;;;;;;;62.30;26.60;;;;;;;;;;5044178;28;20306;-77
2024/01/20 01:30:08;;;;;;;67.33;28.87;;;;;;;;;;5030501;28;20190;-77
2024/01/20 01:32:33;;;;;;;61.73;26.30;;;;;;;;;;5046819;28;20182;-77
2024/01/20 01:34:59;;;;;;;67.80;28.77;;;;;;;;;;5038233;28;20273;-77
2024/01/20 01:37:24;;;;;;;68.50;28.23;;;;;;;;;;5037502;28;20209;-77
2024/01/20 01:39:49;;;;;;;68.57;27.97;;;;;;;;;;5046865;28;20190;-77
2024/01/20 01:42:15;;;;;;;65.60;26.90;;;;;;;;;;5040479;28;20248;-75
2024/01/20 01:44:40;;;;;;;66.70;28.20;;;;;;;;;;5050365;28;20277;-76
2024/01/20 01:47:07;;;;;;;65.47;28.47;;;;;;;;;;5039616;28;20182;-76
2024/01/20 01:49:32;;;;;;;63.93;27.27;;;;;;;;;;5043819;28;20225;-77
2024/01/20 01:51:58;;;;;;;72.53;28.57;;;;;;;;;;5035161;28;20236;-76
2024/01/20 01:54:24;;;;;;;65.13;26.57;;;;;;;;;;5032362;28;20194;-77
2024/01/20 01:56:52;;;;;;;80.63;28.97;;;;;;;;;;5035402;28;20193;-77
2024/01/20 01:59:18;;;;;;;61.50;25.50;;;;;;;;;;5042651;28;20262;-77
2024/01/20 02:01:44;;;;;;;67.60;27.67;;;;;;;;;;5032539;28;20200;-77
2024/01/20 02:04:10;;;;;;;77.23;28.37;;;;;;;;;;5031418;28;20848;-77
2024/01/20 02:06:35;;;;;;;69.67;25.97;;;;;;;;;;5042539;28;20561;-77
2024/01/20 02:09:01;;;;;;;69.00;28.20;;;;;;;;;;5035689;28;20272;-76
2024/01/20 02:11:27;;;;;;;71.37;26.90;;;;;;;;;;5040415;28;20280;-76
2024/01/20 02:13:53;;;;;;;66.13;25.40;;;;;;;;;;5034430;28;20229;-77
2024/01/20 02:16:19;;;;;;;74.13;26.53;;;;;;;;;;5031964;28;20594;-77
2024/01/20 02:18:44;;;;;;;77.23;28.73;;;;;;;;;;5034471;28;20227;-76
2024/01/20 02:21:10;;;;;;;67.70;26.07;;;;;;;;;;5042071;28;20197;-78
2024/01/20 02:23:39;;;;;;;66.73;25.60;;;;;;;;;;5021298;28;20596;-77
2024/01/20 02:26:05;;;;;;;67.63;25.73;;;;;;;;;;5037163;28;20212;-76
2024/01/20 02:28:30;;;;;;;70.83;27.53;;;;;;;;;;5049814;28;20535;-76
2024/01/20 02:30:56;;;;;;;73.80;25.43;;;;;;;;;;5031769;28;20198;-78
2024/01/20 02:33:21;;;;;;;66.40;26.43;;;;;;;;;;5016765;28;20183;-77
2024/01/20 02:35:47;;;;;;;72.80;26.33;;;;;;;;;;5035384;28;20201;-77
2024/01/20 02:38:12;;;;;;;70.53;25.07;;;;;;;;;;5034972;28;20190;-77
2024/01/20 02:40:37;;;;;;;73.20;25.17;;;;;;;;;;5047170;28;20604;-76
2024/01/20 02:43:03;;;;;;;70.27;26.20;;;;;;;;;;5030662;28;20217;-77
2024/01/20 02:45:28;;;;;;;73.40;25.50;;;;;;;;;;5044056;28;20193;-77
2024/01/20 02:47:54;;;;;;;66.73;24.83;;;;;;;;;;5046477;28;20631;-76
2024/01/20 02:50:20;;;;;;;71.50;24.50;;;;;;;;;;5035823;28;20189;-76
2024/01/20 02:52:45;;;;;;;74.03;26.20;;;;;;;;;;5042609;28;20223;-77
2024/01/20 02:55:11;;;;;;;64.17;24.17;;;;;;;;;;5033489;28;20314;-77
2024/01/20 02:57:36;;;;;;;76.80;26.20;;;;;;;;;;5041519;28;20215;-78
2024/01/20 03:00:07;;;;;;;71.20;24.47;;;;;;;;;;5030602;28;20243;-77
2024/01/20 03:02:33;;;;;;;69.20;25.00;;;;;;;;;;5039123;28;20222;-77
2024/01/20 03:05:00;;;;;;;74.37;26.53;;;;;;;;;;5037999;28;20726;-77
2024/01/20 03:07:25;;;;;;;72.60;25.33;;;;;;;;;;5044329;28;20190;-77
2024/01/20 03:09:51;;;;;;;75.13;25.77;;;;;;;;;;5036411;28;20213;-76
2024/01/20 03:12:16;;;;;;;76.20;24.10;;;;;;;;;;5040187;28;20852;-77
2024/01/20 03:14:42;;;;;;;70.57;24.27;;;;;;;;;;5045859;28;20320;-76
2024/01/20 03:17:07;;;;;;;69.07;25.00;;;;;;;;;;5033528;28;20193;-76
2024/01/20 03:19:32;;;;;;;69.73;26.00;;;;;;;;;;5029219;28;20304;-74
2024/01/20 03:21:58;;;;;;;73.47;26.00;;;;;;;;;;5036797;28;20246;-76
2024/01/20 03:24:24;;;;;;;76.70;26.27;;;;;;;;;;5046202;28;20319;-75
2024/01/20 03:26:50;;;;;;;72.90;27.37;;;;;;;;;;5020514;28;20189;-76
2024/01/20 03:29:16;;;;;;;74.20;25.17;;;;;;;;;;5031069;28;20190;-75
2024/01/20 03:31:41;;;;;;;73.90;26.70;;;;;;;;;;5042226;28;20225;-76
2024/01/20 03:34:08;;;;;;;78.17;25.87;;;;;;;;;;5040832;28;20186;-76
2024/01/20 03:36:34;;;;;;;69.20;25.97;;;;;;;;;;5041315;28;20186;-76
2024/01/20 03:38:59;;;;;;;73.50;25.93;;;;;;;;;;5028538;28;20260;-77
2024/01/20 03:41:25;;;;;;;71.33;26.80;;;;;;;;;;5027899;28;20194;-75
2024/01/20 03:43:50;;;;;;;74.07;26.60;;;;;;;;;;5035611;28;20205;-76
2024/01/20 03:46:17;;;;;;;73.83;25.93;;;;;;;;;;5022897;28;20508;-76
2024/01/20 03:48:42;;;;;;;69.47;26.27;;;;;;;;;;5049275;28;20687;-75
2024/01/20 03:51:09;;;;;;;74.07;26.20;;;;;;;;;;5047270;28;20303;-76
2024/01/20 03:53:34;;;;;;;65.53;26.17;;;;;;;;;;5030806;28;20216;-76
2024/01/20 03:56:03;;;;;;;72.50;25.63;;;;;;;;;;5033409;28;20193;-76
2024/01/20 03:58:29;;;;;;;69.27;24.83;;;;;;;;;;5030457;28;20718;-76
2024/01/20 04:00:54;;;;;;;71.73;25.43;;;;;;;;;;5038430;28;20198;-76
2024/01/20 04:03:19;;;;;;;74.10;26.67;;;;;;;;;;5039173;28;20270;-76
2024/01/20 04:05:47;;;;;;;70.83;25.23;;;;;;;;;;5048329;28;20303;-76
2024/01/20 04:08:12;;;;;;;69.23;25.07;;;;;;;;;;5032925;28;20185;-76
2024/01/20 04:10:38;;;;;;;65.67;23.63;;;;;;;;;;5032350;28;20358;-75
2024/01/20 04:13:03;;;;;;;65.90;24.90;;;;;;;;;;5032049;28;20265;-75
2024/01/20 04:15:29;;;;;;;73.93;23.83;;;;;;;;;;5030679;28;20492;-75
2024/01/20 04:17:54;;;;;;;68.50;23.07;;;;;;;;;;5026923;28;20304;-77
2024/01/20 04:20:19;;;;;;;63.43;22.97;;;;;;;;;;5031915;28;20250;-76
2024/01/20 04:22:45;;;;;;;63.03;23.80;;;;;;;;;;5027964;28;20280;-77
2024/01/20 04:25:11;;;;;;;66.70;24.63;;;;;;;;;;5028216;28;20673;-77
2024/01/20 04:27:40;;;;;;;70.50;23.30;;;;;;;;;;5028134;28;20193;-78
2024/01/20 04:30:10;;;;;;;68.80;24.07;;;;;;;;;;5037716;28;20190;-77
2024/01/20 04:32:36;;;;;;;65.63;23.70;;;;;;;;;;5038494;28;20213;-77
2024/01/20 04:35:04;;;;;;;71.90;22.83;;;;;;;;;;5035383;28;20701;-77
2024/01/20 04:37:30;;;;;;;69.03;22.83;;;;;;;;;;5027476;28;20218;-78
2024/01/20 04:39:56;;;;;;;57.40;22.67;;;;;;;;;;5030062;28;20181;-77
2024/01/20 04:42:22;;;;;;;65.83;23.27;;;;;;;;;;5048418;28;20571;-77
2024/01/20 04:44:47;;;;;;;64.03;23.53;;;;;;;;;;5043885;28;20193;-78
2024/01/20 04:47:13;;;;;;;63.80;21.90;;;;;;;;;;5030454;28;20234;-77
2024/01/20 04:49:38;;;;;;;70.03;22.93;;;;;;;;;;5027799;28;20721;-77
2024/01/20 04:52:04;;;;;;;63.63;22.20;;;;;;;;;;5037513;28;20269;-77
2024/01/20 04:54:29;;;;;;;65.07;23.23;;;;;;;;;;5030260;28;20202;-77
2024/01/20 04:56:58;;;;;;;65.67;21.70;;;;;;;;;;5030089;28;20193;-76
2024/01/20 04:59:24;;;;;;;64.27;21.97;;;;;;;;;;5031120;28;20598;-76
2024/01/20 05:01:50;;;;;;;54.73;20.97;;;;;;;;;;5035243;28;20189;-77
2024/01/20 05:04:15;;;;;;;63.43;21.30;;;;;;;;;;5015901;28;20214;-77
2024/01/20 05:06:45;;;;;;;62.93;21.00;;;;;;;;;;5053327;28;20247;-77
2024/01/20 05:09:11;;;;;;;62.00;23.53;;;;;;;;;;5029472;28;20193;-76
2024/01/20 05:11:37;;;;;;;60.43;21.13;;;;;;;;;;5042152;28;20238;-77
2024/01/20 05:14:02;;;;;;;62.70;20.60;;;;;;;;;;5030699;28;20300;-75
2024/01/20 05:16:27;;;;;;;59.37;20.93;;;;;;;;;;5045364;28;20241;-75
2024/01/20 05:18:53;;;;;;;55.50;19.60;;;;;;;;;;5038838;28;20665;-76
2024/01/20 05:21:18;;;;;;;56.67;19.63;;;;;;;;;;5033063;28;20263;-78
2024/01/20 05:23:44;;;;;;;63.53;21.23;;;;;;;;;;5033678;28;20658;-77
2024/01/20 05:26:09;;;;;;;60.77;20.63;;;;;;;;;;5040382;28;20400;-77
2024/01/20 05:28:35;;;;;;;60.87;20.70;;;;;;;;;;5035526;28;20822;-77
2024/01/20 05:31:00;;;;;;;55.10;20.53;;;;;;;;;;5028614;28;20244;-77
2024/01/20 05:33:25;;;;;;;59.80;19.73;;;;;;;;;;5039915;28;20186;-77
2024/01/20 05:35:51;;;;;;;56.57;20.83;;;;;;;;;;5041840;28;20244;-77
2024/01/20 05:38:16;;;;;;;63.57;21.70;;;;;;;;;;5036101;28;20219;-77
2024/01/20 05:40:42;;;;;;;62.60;20.87;;;;;;;;;;5032103;28;20311;-77
2024/01/20 05:43:07;;;;;;;60.00;20.67;;;;;;;;;;5037686;28;20776;-77
2024/01/20 05:45:32;;;;;;;67.27;22.10;;;;;;;;;;5031870;28;20190;-76
2024/01/20 05:47:58;;;;;;;65.80;21.53;;;;;;;;;;5041560;28;20213;-76
2024/01/20 05:50:23;;;;;;;62.67;21.03;;;;;;;;;;5045368;28;20264;-77
2024/01/20 05:52:50;;;;;;;57.10;19.73;;;;;;;;;;5045389;28;20248;-76
2024/01/20 05:55:15;;;;;;;56.37;19.03;;;;;;;;;;5033249;28;20209;-76
2024/01/20 05:57:41;;;;;;;65.70;20.43;;;;;;;;;;5047037;28;20197;-76
2024/01/20 06:00:09;;;;;;;64.53;21.60;;;;;;;;;;5047230;28;20601;-76
2024/01/20 06:02:35;;;;;;;53.20;20.70;;;;;;;;;;5021547;28;20275;-77
2024/01/20 06:05:00;;;;;;;60.10;22.20;;;;;;;;;;5037919;28;20194;-76
2024/01/20 06:07:26;;;;;;;57.43;21.43;;;;;;;;;;5046209;28;20605;-76
2024/01/20 06:09:51;;;;;;;63.57;20.43;;;;;;;;;;5037587;28;20281;-77
2024/01/20 06:12:17;;;;;;;59.10;20.83;;;;;;;;;;5031894;28;20260;-76
2024/01/20 06:14:43;;;;;;;64.57;21.03;;;;;;;;;;5041334;28;20225;-77
2024/01/20 06:17:09;;;;;;;55.80;20.53;;;;;;;;;;5032371;28;20237;-76
2024/01/20 06:19:34;;;;;;;62.63;21.47;;;;;;;;;;5047044;28;20209;-78
2024/01/20 06:22:00;;;;;;;59.77;20.23;;;;;;;;;;5038524;28;20189;-76
2024/01/20 06:24:25;;;;;;;60.73;21.17;;;;;;;;;;5041712;28;20221;-77
2024/01/20 06:26:51;;;;;;;59.00;20.10;;;;;;;;;;5041487;28;20212;-77
2024/01/20 06:29:16;;;;;;;63.10;20.10;;;;;;;;;;5034756;28;20202;-77
2024/01/20 06:31:41;;;;;;;58.00;21.30;;;;;;;;;;5019384;28;20192;-76
2024/01/20 06:34:07;;;;;;;57.00;20.07;;;;;;;;;;5046469;28;20185;-77
2024/01/20 06:36:32;;;;;;;57.50;19.93;;;;;;;;;;5040112;28;20246;-77
2024/01/20 06:38:58;;;;;;;65.10;21.10;;;;;;;;;;5019443;28;20262;-76
2024/01/20 06:41:23;;;;;;;59.57;20.40;;;;;;;;;;5047890;28;20242;-76
2024/01/20 06:43:48;;;;;;;66.70;20.90;;;;;;;;;;5038696;28;20259;-77
2024/01/20 06:46:14;;;;;;;65.80;21.20;;;;;;;;;;5035774;28;20696;-77
2024/01/20 06:48:39;;;;;;;62.57;21.50;;;;;;;;;;5048554;28;20527;-76
2024/01/20 06:51:06;;;;;;;55.47;20.67;;;;;;;;;;5038235;28;20208;-76
2024/01/20 06:53:32;;;;;;;55.47;21.27;;;;;;;;;;5046120;28;20658;-77
2024/01/20 06:55:58;;;;;;;55.97;21.23;;;;;;;;;;5049884;28;20189;-76
2024/01/20 06:58:24;;;;;;;61.93;21.27;;;;;;;;;;5041628;28;20681;-76
2024/01/20 07:00:50;;;;;;;57.87;21.47;;;;;;;;;;5034510;28;20196;-76
2024/01/20 07:03:16;;;;;;;58.77;20.97;;;;;;;;;;5042675;28;20727;-77
2024/01/20 07:05:41;;;;;;;60.47;21.37;;;;;;;;;;5049285;28;20205;-76
2024/01/20 07:08:07;;;;;;;57.20;20.27;;;;;;;;;;5034891;28;20223;-76
2024/01/20 07:10:32;;;;;;;59.43;21.03;;;;;;;;;;5043468;28;20686;-76
2024/01/20 07:12:58;;;;;;;59.70;22.03;;;;;;;;;;5034664;28;20193;-77
2024/01/20 07:15:24;;;;;;;56.60;22.17;;;;;;;;;;5043996;28;20438;-77
2024/01/20 07:17:49;;;;;;;59.17;21.87;;;;;;;;;;5044828;28;20555;-77
2024/01/20 07:20:15;;;;;;;62.17;21.87;;;;;;;;;;5044113;28;20193;-77
2024/01/20 07:22:41;;;;;;;60.43;21.30;;;;;;;;;;5046378;28;20567;-76
2024/01/20 07:25:10;;;;;;;56.53;20.43;;;;;;;;;;5043449;28;20202;-78
2024/01/20 07:27:35;;;;;;;59.30;19.30;;;;;;;;;;5043661;28;20189;-77
2024/01/20 07:30:00;;;;;;;50.67;20.23;;;;;;;;;;5034978;28;20291;-77
2024/01/20 07:32:26;;;;;;;49.80;19.17;;;;;;;;;;5036623;28;20185;-76
2024/01/20 07:34:52;;;;;;;58.63;21.10;;;;;;;;;;5029392;28;20282;-77
2024/01/20 07:37:17;;;;;;;55.83;20.27;;;;;;;;;;5033780;28;20257;-76
2024/01/20 07:39:43;;;;;;;55.27;21.63;;;;;;;;;;5023081;28;20254;-77
2024/01/20 07:42:08;;;;;;;49.57;19.60;;;;;;;;;;5040433;28;20213;-77
2024/01/20 07:44:33;;;;;;;55.90;20.00;;;;;;;;;;5048344;28;20193;-77
2024/01/20 07:46:59;;;;;;;53.97;19.93;;;;;;;;;;5046861;28;20219;-77
2024/01/20 07:49:24;;;;;;;56.07;20.53;;;;;;;;;;5038871;28;20197;-76
2024/01/20 07:51:50;;;;;;;55.47;22.50;;;;;;;;;;5042981;28;20186;-76
2024/01/20 07:54:16;;;;;;;52.10;20.63;;;;;;;;;;5031084;28;20561;-76
2024/01/20 07:56:42;;;;;;;57.67;20.87;;;;;;;;;;5040122;28;20193;-77
2024/01/20 07:59:07;;;;;;;50.10;20.57;;;;;;;;;;5043594;28;20190;-77
2024/01/20 08:01:33;;;;;;;60.00;22.73;;;;;;;;;;5037135;28;20692;-76
2024/01/20 08:03:58;;;;;;;50.97;20.43;;;;;;;;;;5048119;28;20304;-76
2024/01/20 08:06:24;;;;;;;48.50;19.30;;;;;;;;;;5047785;28;20527;-76
2024/01/20 08:08:49;;;;;;;56.20;20.97;;;;;;;;;;5046811;28;20251;-76
2024/01/20 08:11:14;;;;;;;48.07;20.33;;;;;;;;;;5032656;28;20234;-76
2024/01/20 08:13:40;;;;;;;53.37;20.80;;;;;;;;;;5043890;28;20186;-76
2024/01/20 08:16:06;;;;;;;47.03;19.47;;;;;;;;;;5044749;28;20225;-76
2024/01/20 08:18:32;;;;;;;49.43;18.47;;;;;;;;;;5028919;28;20310;-76
2024/01/20 08:20:57;;;;;;;48.00;18.27;;;;;;;;;;5036531;28;20921;-76
2024/01/20 08:23:23;;;;;;;49.13;19.83;;;;;;;;;;5030149;28;20767;-76
2024/01/20 08:25:48;;;;;;;51.33;19.30;;;;;;;;;;5042686;28;20186;-76
2024/01/20 08:28:14;;;;;;;50.13;19.53;;;;;;;;;;5036696;28;20592;-76
2024/01/20 08:30:39;;;;;;;46.90;18.90;;;;;;;;;;5025842;28;20189;-75
2024/01/20 08:33:04;;;;;;;49.73;20.13;;;;;;;;;;5031232;28;20276;-75
2024/01/20 08:35:30;;;;;;;48.80;19.57;;;;;;;;;;5043591;28;20274;-76
2024/01/20 08:37:55;;;;;;;47.50;19.80;;;;;;;;;;5025596;28;20640;-76
2024/01/20 08:40:21;;;;;;;45.63;18.47;;;;;;;;;;5038085;28;20189;-77
2024/01/20 08:42:46;;;;;;;44.83;19.37;;;;;;;;;;5029617;28;20213;-76
2024/01/20 08:45:12;;;;;;;47.57;19.87;;;;;;;;;;5037385;28;20197;-77
2024/01/20 08:47:37;;;;;;;47.47;19.23;;;;;;;;;;5042072;28;20193;-76
2024/01/20 08:50:03;;;;;;;51.47;18.73;;;;;;;;;;5042249;28;20268;-76
2024/01/20 08:52:29;;;;;;;48.77;19.50;;;;;;;;;;5034315;28;20587;-75
2024/01/20 08:54:55;;;;;;;47.03;19.13;;;;;;;;;;5030090;28;20205;-75
2024/01/20 08:57:21;;;;;;;42.27;18.03;;;;;;;;;;5038265;28;20189;-77
2024/01/20 08:59:46;;;;;;;43.50;19.17;;;;;;;;;;5037332;28;20637;-77
2024/01/20 09:02:12;;;;;;;43.63;18.50;;;;;;;;;;5029276;28;20213;-77
2024/01/20 09:04:37;;;;;;;45.33;19.27;;;;;;;;;;5030749;28;20193;-76
2024/01/20 09:07:02;;;;;;;42.93;18.03;;;;;;;;;;5037348;28;20602;-77
2024/01/20 09:09:28;;;;;;;40.27;17.83;;;;;;;;;;5038371;28;20197;-78
2024/01/20 09:11:53;;;;;;;37.70;17.37;;;;;;;;;;5033568;28;20181;-76
2024/01/20 09:14:19;;;;;;;41.17;17.33;;;;;;;;;;5034441;28;20212;-77
2024/01/20 09:16:44;;;;;;;40.33;17.27;;;;;;;;;;5041580;28;20781;-77
2024/01/20 09:19:09;;;;;;;39.97;18.37;;;;;;;;;;5029367;28;20293;-75
2024/01/20 09:21:35;;;;;;;40.20;18.17;;;;;;;;;;5041192;28;20335;-77
2024/01/20 09:24:00;;;;;;;35.77;16.70;;;;;;;;;;5028208;28;20295;-76
2024/01/20 09:26:26;;;;;;;38.63;17.00;;;;;;;;;;5021555;28;20190;-77
2024/01/20 09:28:51;;;;;;;39.20;17.20;;;;;;;;;;5029423;28;20256;-76
2024/01/20 09:31:17;;;;;;;36.77;16.17;;;;;;;;;;5031346;28;20521;-76
2024/01/20 09:33:44;;;;;;;37.10;16.80;;;;;;;;;;5031144;28;20261;-77
2024/01/20 09:36:09;;;;;;;35.47;17.03;;;;;;;;;;5032601;28;20201;-75
2024/01/20 09:38:35;;;;;;;41.50;18.37;;;;;;;;;;5024947;28;20505;-75
2024/01/20 09:41:00;;;;;;;36.57;16.57;;;;;;;;;;5039625;28;20432;-76
2024/01/20 09:43:26;;;;;;;38.67;17.27;;;;;;;;;;5038192;28;20209;-76
2024/01/20 09:45:52;;;;;;;33.13;16.40;;;;;;;;;;5035784;28;20242;-75
2024/01/20 09:48:18;;;;;;;38.90;17.20;;;;;;;;;;5033408;28;20557;-75
2024/01/20 09:50:44;;;;;;;37.20;18.10;;;;;;;;;;5045162;28;20186;-77
2024/01/20 09:53:14;;;;;;;35.60;16.83;;;;;;;;;;5034300;28;20224;-76
2024/01/20 09:55:44;;;;;;;40.20;16.80;;;;;;;;;;5030012;28;20229;-76
2024/01/20 09:58:12;;;;;;;37.50;17.67;;;;;;;;;;5032841;28;20226;-75
2024/01/20 10:00:38;;;;;;;35.17;17.63;;;;;;;;;;5039012;28;20199;-75
2024/01/20 10:03:07;;;;;;;35.17;17.67;;;;;;;;;;5046622;28;20216;-76
2024/01/20 10:05:33;;;;;;;33.00;16.47;;;;;;;;;;5038889;28;20513;-75
2024/01/20 10:07:59;;;;;;;37.17;17.77;;;;;;;;;;5062838;28;20531;-75
2024/01/20 10:10:24;;;;;;;35.10;16.57;;;;;;;;;;5041694;28;20308;-76
2024/01/20 10:12:54;;;;;;;34.60;17.87;;;;;;;;;;5042601;28;20190;-77
2024/01/20 10:15:25;;;;;;;32.13;15.63;;;;;;;;;;5045798;28;20314;-77
2024/01/20 10:17:51;;;;;;;35.97;16.93;;;;;;;;;;5050850;28;20276;-77
2024/01/20 10:20:21;;;;;;;40.03;17.80;;;;;;;;;;5035253;28;20600;-76
2024/01/20 10:22:48;;;;;;;35.33;16.60;;;;;;;;;;5037079;28;20290;-75
2024/01/20 10:25:20;;;;;;;40.17;18.10;;;;;;;;;;5039311;28;20273;-79
2024/01/20 10:27:50;;;;;;;37.13;17.73;;;;;;;;;;5027238;28;20668;-76
2024/01/20 10:30:23;;;;;;;38.33;17.53;;;;;;;;;;5038040;28;20181;-76
2024/01/20 10:32:49;;;;;;;34.60;16.97;;;;;;;;;;5035501;28;20265;-77
2024/01/20 10:35:15;;;;;;;36.30;16.57;;;;;;;;;;5035274;28;20576;-75
2024/01/20 10:37:46;;;;;;;33.17;15.97;;;;;;;;;;5044851;28;20185;-75
2024/01/20 10:40:15;;;;;;;37.90;17.23;;;;;;;;;;5031151;28;20190;-77
2024/01/20 10:42:45;;;;;;;34.77;16.57;;;;;;;;;;5041959;28;20235;-77
2024/01/20 10:45:18;;;;;;;38.60;16.60;;;;;;;;;;5039834;28;20272;-76
2024/01/20 10:47:56;;;;;;;33.40;15.93;;;;;;;;;;5042470;28;20193;-77
2024/01/20 10:50:24;;;;;;;35.80;17.07;;;;;;;;;;5035028;28;20597;-75
2024/01/20 10:52:51;;;;;;;36.80;17.13;;;;;;;;;;5039140;28;22324;-76
2024/01/20 10:55:18;;;;;;;32.23;16.83;;;;;;;;;;5040688;28;20545;-78
2024/01/20 10:57:44;;;;;;;33.93;16.33;;;;;;;;;;5047451;28;20193;-76
2024/01/20 11:00:11;;;;;;;35.07;16.27;;;;;;;;;;5024184;28;20192;-76
2024/01/20 11:02:37;;;;;;;31.43;15.60;;;;;;;;;;5043585;28;20288;-76
2024/01/20 11:05:03;;;;;;;31.53;15.30;;;;;;;;;;5030881;28;20204;-75
2024/01/20 11:07:29;;;;;;;32.20;14.80;;;;;;;;;;5020641;28;20704;-78
2024/01/20 11:09:58;;;;;;;32.07;15.27;;;;;;;;;;5014342;28;20193;-76
2024/01/20 11:12:25;;;;;;;31.27;14.60;;;;;;;;;;5038219;28;20530;-76
2024/01/20 11:14:52;;;;;;;33.30;16.50;;;;;;;;;;5032026;28;20473;-77
2024/01/20 11:17:18;;;;;;;34.60;16.37;;;;;;;;;;5034576;28;20585;-76
2024/01/20 11:19:44;;;;;;;34.20;15.40;;;;;;;;;;5027844;28;20248;-76
2024/01/20 11:22:38;;;;;;;34.97;15.60;;;;;;;;;;5044780;28;20696;-76
2024/01/20 11:25:07;;;;;;;32.10;15.43;;;;;;;;;;5030269;28;20301;-77
2024/01/20 11:27:46;;;;;;;30.10;15.80;;;;;;;;;;5041765;28;20263;-76
2024/01/20 11:30:12;;;;;;;31.80;15.30;;;;;;;;;;5031678;28;20590;-75
2024/01/20 11:32:40;;;;;;;35.57;15.13;;;;;;;;;;5039448;28;20194;-77
2024/01/20 11:35:05;;;;;;;28.90;15.30;;;;;;;;;;5047562;28;20228;-75
2024/01/20 11:37:31;;;;;;;31.07;15.50;;;;;;;;;;5037136;28;20201;-78
2024/01/20 11:40:07;;;;;;;31.77;16.60;;;;;;;;;;5048361;28;20280;-77
2024/01/20 11:42:33;;;;;;;31.87;15.77;;;;;;;;;;5040741;28;20243;-75
2024/01/20 11:45:06;;;;;;;30.57;15.17;;;;;;;;;;5047148;28;20193;-74
2024/01/20 11:47:32;;;;;;;33.57;15.03;;;;;;;;;;5048066;28;20193;-75
2024/01/20 11:49:58;;;;;;;29.80;16.30;;;;;;;;;;5057928;28;20247;-76
2024/01/20 11:52:27;;;;;;;28.13;14.73;;;;;;;;;;5040544;28;20259;-75
2024/01/20 11:54:53;;;;;;;32.83;15.07;;;;;;;;;;5042357;28;20215;-75
2024/01/20 11:57:26;;;;;;;36.20;15.77;;;;;;;;;;5029914;28;20205;-76
2024/01/20 11:59:54;;;;;;;31.57;16.27;;;;;;;;;;5047095;28;20185;-74
2024/01/20 12:02:21;;;;;;;31.30;16.63;;;;;;;;;;5029783;28;20182;-76
2024/01/20 12:04:46;;;;;;;30.13;14.67;;;;;;;;;;5032648;28;20201;-76
2024/01/20 12:07:12;;;;;;;32.87;16.13;;;;;;;;;;5036975;28;20202;-75
2024/01/20 12:09:38;;;;;;;30.93;16.00;;;;;;;;;;5041991;28;20535;-75
2024/01/20 12:12:04;;;;;;;29.83;15.30;;;;;;;;;;5027156;28;20190;-75
2024/01/20 12:14:30;;;;;;;32.50;15.23;;;;;;;;;;5026770;28;20606;-76
2024/01/20 12:16:56;;;;;;;30.83;15.17;;;;;;;;;;5026067;28;20221;-75
2024/01/20 12:19:22;;;;;;;29.10;14.57;;;;;;;;;;5020443;28;20220;-75
2024/01/20 12:21:48;;;;;;;31.93;15.33;;;;;;;;;;5024870;28;20669;-75
2024/01/20 12:24:13;;;;;;;29.97;15.53;;;;;;;;;;5003488;28;20228;-75
2024/01/20 12:26:42;;;;;;;36.27;16.53;;;;;;;;;;5035733;28;20193;-75
2024/01/20 12:29:07;;;;;;;33.63;15.80;;;;;;;;;;5039249;28;20181;-75
2024/01/20 12:31:33;;;;;;;31.77;15.37;;;;;;;;;;5039125;28;20563;-75
2024/01/20 12:33:59;;;;;;;35.37;15.07;;;;;;;;;;5032327;28;20236;-76
2024/01/20 12:36:26;;;;;;;28.60;15.57;;;;;;;;;;5024782;28;20275;-74
2024/01/20 12:38:52;;;;;;;26.07;14.07;;;;;;;;;;5025299;28;20588;-75
2024/01/20 12:41:17;;;;;;;29.93;15.80;;;;;;;;;;5026142;28;20220;-76
2024/01/20 12:43:47;;;;;;;27.70;14.87;;;;;;;;;;5026624;28;20693;-75
2024/01/20 12:46:12;;;;;;;32.43;16.20;;;;;;;;;;5027484;28;20630;-75
2024/01/20 12:48:38;;;;;;;30.07;14.53;;;;;;;;;;5027524;28;20236;-76
2024/01/20 12:51:04;;;;;;;30.03;15.13;;;;;;;;;;5026831;28;20186;-75
2024/01/20 12:53:29;;;;;;;29.30;14.90;;;;;;;;;;5024257;28;20201;-75
2024/01/20 12:55:55;;;;;;;32.73;15.10;;;;;;;;;;5024988;28;20221;-76
2024/01/20 12:58:21;;;;;;;29.47;14.90;;;;;;;;;;5024723;28;20205;-74
2024/01/20 13:00:47;;;;;;;29.27;14.83;;;;;;;;;;5025040;28;20658;-75
2024/01/20 13:03:12;;;;;;;30.70;13.60;;;;;;;;;;5026421;28;20217;-75
2024/01/20 13:05:37;;;;;;;30.13;14.30;;;;;;;;;;5019387;28;20178;-74
2024/01/20 13:08:03;;;;;;;29.07;13.80;;;;;;;;;;5025036;28;20602;-76
2024/01/20 13:10:30;;;;;;;30.87;14.63;;;;;;;;;;5026137;28;20202;-76
2024/01/20 13:12:56;;;;;;;30.27;14.77;;;;;;;;;;5039581;28;20193;-76
2024/01/20 13:15:23;;;;;;;27.40;14.73;;;;;;;;;;5036645;28;20240;-76
2024/01/20 13:17:50;;;;;;;25.57;13.87;;;;;;;;;;5040741;28;20186;-76
2024/01/20 13:20:15;;;;;;;26.80;14.40;;;;;;;;;;5035725;28;20189;-76
2024/01/20 13:22:40;;;;;;;30.33;13.80;;;;;;;;;;5036704;28;20207;-76
2024/01/20 13:25:06;;;;;;;28.10;13.97;;;;;;;;;;5038977;28;20228;-76
2024/01/20 13:27:32;;;;;;;28.70;14.80;;;;;;;;;;5040869;28;20185;-76
2024/01/20 13:29:58;;;;;;;32.60;14.80;;;;;;;;;;5042684;28;20213;-76
2024/01/20 13:32:24;;;;;;;29.73;14.27;;;;;;;;;;5041204;28;20653;-76
2024/01/20 13:34:49;;;;;;;24.87;12.43;;;;;;;;;;5040484;28;20346;-77
2024/01/20 13:37:14;;;;;;;29.33;13.33;;;;;;;;;;5045591;28;20684;-76
2024/01/20 13:39:40;;;;;;;26.50;13.20;;;;;;;;;;5043723;28;20201;-76
2024/01/20 13:42:05;;;;;;;27.20;13.50;;;;;;;;;;5046156;28;20292;-77
2024/01/20 13:44:31;;;;;;;27.50;13.30;;;;;;;;;;5032952;28;20300;-75
2024/01/20 13:46:56;;;;;;;27.43;13.63;;;;;;;;;;5044215;28;20229;-76
2024/01/20 13:49:22;;;;;;;26.83;13.83;;;;;;;;;;5042262;28;20200;-77
2024/01/20 13:51:47;;;;;;;25.20;13.10;;;;;;;;;;5045775;28;20271;-77
2024/01/20 13:54:12;;;;;;;26.73;12.67;;;;;;;;;;5039052;28;20174;-77
2024/01/20 13:56:38;;;;;;;23.93;11.87;;;;;;;;;;5015905;28;20193;-77
2024/01/20 13:59:03;;;;;;;28.70;13.50;;;;;;;;;;5040387;28;20193;-77
2024/01/20 14:01:29;;;;;;;30.13;13.17;;;;;;;;;;5019029;28;20596;-77
2024/01/20 14:03:54;;;;;;;24.37;13.10;;;;;;;;;;5044672;28;20225;-77
2024/01/20 14:06:20;;;;;;;29.20;14.67;;;;;;;;;;5023207;28;20209;-76
2024/01/20 14:08:46;;;;;;;32.63;15.57;;;;;;;;;;5044575;28;20190;-76